Time;durP1;ratioP1;P1;durP2;ratioP2;P2;SDS_P1;SDS_P2;PMS_P1;PMS_P2;Temp;Humidity;BMP_temperature;BMP_pressure;BME280_temperature;BME280_humidity;BME280_pressure;Samples;Min_cycle;Max_cycle;Signal;HPM_P1;HPM_P2
2021/05/13 00:00:54;;;;;;;16.03;14.23;;;;;;;13.79;65.30;100919.53;6145178;28;20231;-49
2021/05/13 00:04:16;;;;;;;17.13;15.00;;;;;;;13.89;65.27;100925.41;6142957;28;20621;-51
2021/05/13 00:07:36;;;;;;;17.47;15.67;;;;;;;13.48;66.39;100924.50;6127180;28;20577;-53
2021/05/13 00:11:03;;;;;;;20.77;16.20;;;;;;;13.69;65.81;100929.31;6117204;28;20240;-47
2021/05/13 00:14:23;;;;;;;18.10;16.00;;;;;;;13.84;65.48;100925.53;6125890;28;20247;-51
2021/05/13 00:17:44;;;;;;;20.10;17.27;;;;;;;13.67;65.80;100935.47;6127225;29;20657;-47
2021/05/13 00:21:06;;;;;;;17.60;15.40;;;;;;;13.85;65.26;100935.09;6140617;28;20231;-48
2021/05/13 00:24:26;;;;;;;19.73;17.50;;;;;;;13.25;67.17;100938.84;6123966;29;20228;-45
2021/05/13 00:27:47;;;;;;;22.27;18.07;;;;;;;13.42;67.00;100930.72;6142324;28;20309;-53
2021/05/13 00:31:08;;;;;;;22.30;17.67;;;;;;;13.65;66.03;100921.53;6132209;28;20223;-47
2021/05/13 00:34:28;;;;;;;17.47;15.70;;;;;;;13.50;66.09;100914.88;6143062;28;20523;-49
2021/05/13 00:37:50;;;;;;;18.23;15.83;;;;;;;13.64;65.72;100914.59;6134648;28;20255;-47
2021/05/13 00:41:11;;;;;;;23.33;19.43;;;;;;;13.22;66.83;100898.78;6136955;28;20501;-47
2021/05/13 00:44:34;;;;;;;23.57;19.20;;;;;;;12.96;68.15;100905.38;6088164;29;20240;-51
2021/05/13 00:48:05;;;;;;;18.77;16.87;;;;;;;13.33;66.56;100904.72;6112389;29;20795;-51
2021/05/13 00:51:27;;;;;;;22.33;18.30;;;;;;;13.43;65.98;100901.03;6116590;29;20231;-50
2021/05/13 00:54:49;;;;;;;21.57;18.97;;;;;;;13.33;66.19;100905.56;6123808;28;20228;-46
2021/05/13 00:58:09;;;;;;;20.87;17.63;;;;;;;13.35;66.44;100908.19;6116857;29;20327;-48
2021/05/13 01:01:40;;;;;;;23.13;18.17;;;;;;;13.42;66.20;100896.72;6124305;29;20725;-48
2021/05/13 01:05:00;;;;;;;23.50;20.00;;;;;;;13.44;66.33;100902.78;6123356;29;20560;-48
2021/05/13 01:08:21;;;;;;;21.87;19.50;;;;;;;13.29;66.87;100908.25;6117849;29;20219;-52
2021/05/13 01:11:44;;;;;;;22.47;18.90;;;;;;;13.24;67.35;100917.94;6118469;29;20238;-46
2021/05/13 01:15:08;;;;;;;20.73;17.00;;;;;;;13.39;66.42;100904.59;6144570;28;20648;-51
2021/05/13 01:18:29;;;;;;;21.20;18.77;;;;;;;13.56;66.09;100899.91;6135842;28;20239;-47
2021/05/13 01:21:51;;;;;;;19.50;16.37;;;;;;;13.72;65.38;100896.97;6121805;29;20232;-50
2021/05/13 01:25:11;;;;;;;23.07;17.30;;;;;;;13.54;65.66;100887.75;6115077;29;20231;-50
2021/05/13 01:28:32;;;;;;;20.60;16.23;;;;;;;13.20;67.13;100894.47;6115920;29;20823;-50
2021/05/13 01:31:54;;;;;;;20.97;18.80;;;;;;;13.01;67.69;100898.31;6112628;28;20307;-48
2021/05/13 01:35:14;;;;;;;20.80;18.50;;;;;;;13.18;67.56;100898.00;6116194;29;20220;-49
2021/05/13 01:38:36;;;;;;;21.13;18.70;;;;;;;13.24;67.30;100891.78;6143178;28;20235;-46
2021/05/13 01:41:56;;;;;;;18.83;16.90;;;;;;;13.27;66.84;100886.50;6133378;28;20286;-53
2021/05/13 01:45:17;;;;;;;20.13;17.97;;;;;;;13.44;66.55;100892.31;6101143;29;20553;-52
2021/05/13 01:48:37;;;;;;;22.40;18.27;;;;;;;13.39;66.90;100894.13;6118258;29;20625;-45
2021/05/13 01:51:58;;;;;;;20.43;17.93;;;;;;;13.48;66.45;100893.97;6117050;29;20255;-46
2021/05/13 01:55:20;;;;;;;19.33;16.93;;;;;;;13.43;66.62;100893.19;6117636;29;20235;-51
2021/05/13 01:58:41;;;;;;;19.90;15.60;;;;;;;13.42;67.13;100894.09;6137585;28;20263;-47
2021/05/13 02:02:02;;;;;;;21.43;18.93;;;;;;;13.47;66.73;100888.75;6103814;28;20319;-49
2021/05/13 02:05:23;;;;;;;20.00;17.77;;;;;;;13.56;66.20;100886.81;6138442;28;20321;-48
2021/05/13 02:08:43;;;;;;;18.77;16.43;;;;;;;13.64;66.03;100883.19;6141643;28;20246;-50
2021/05/13 02:12:06;;;;;;;18.30;16.27;;;;;;;13.61;66.58;100880.63;6137434;29;20808;-47
2021/05/13 02:15:26;;;;;;;18.27;15.73;;;;;;;13.46;66.41;100885.28;6140940;28;20227;-48
2021/05/13 02:18:47;;;;;;;19.67;17.57;;;;;;;13.47;66.00;100881.75;6139445;28;20231;-47
2021/05/13 02:22:07;;;;;;;21.53;15.77;;;;;;;13.45;66.46;100888.78;6141597;29;20223;-46
2021/05/13 02:25:31;;;;;;;21.77;17.60;;;;;;;13.59;65.59;100884.16;6140996;28;20285;-46
2021/05/13 02:28:52;;;;;;;18.87;16.60;;;;;;;13.57;66.16;100888.56;6138571;29;20844;-46
2021/05/13 02:32:13;;;;;;;21.67;18.10;;;;;;;13.30;66.99;100884.75;6141456;29;20623;-45
2021/05/13 02:35:33;;;;;;;19.70;15.53;;;;;;;13.43;66.87;100876.63;6127836;28;20681;-53
2021/05/13 02:38:54;;;;;;;21.10;15.83;;;;;;;13.48;66.70;100882.66;6140704;29;20664;-48
2021/05/13 02:42:15;;;;;;;18.97;17.00;;;;;;;13.59;66.17;100873.69;6139253;29;20541;-51
2021/05/13 02:45:36;;;;;;;19.50;17.43;;;;;;;13.27;67.03;100868.19;6135643;28;21389;-48
2021/05/13 02:48:56;;;;;;;21.23;17.70;;;;;;;13.11;67.64;100862.41;6135741;29;20230;-49
2021/05/13 02:52:17;;;;;;;21.10;17.40;;;;;;;13.29;67.23;100861.19;6126756;28;20247;-47
2021/05/13 02:55:37;;;;;;;22.37;18.23;;;;;;;13.32;66.61;100856.78;6136524;28;20242;-48
2021/05/13 02:58:58;;;;;;;22.03;18.30;;;;;;;13.47;66.61;100845.13;6135265;28;20235;-50
2021/05/13 03:02:19;;;;;;;20.80;18.53;;;;;;;13.34;66.96;100848.94;6139862;28;20242;-52
2021/05/13 03:05:39;;;;;;;20.53;18.40;;;;;;;13.37;67.13;100856.69;6130620;28;20223;-44
2021/05/13 03:09:02;;;;;;;22.17;18.60;;;;;;;13.58;66.51;100850.16;6139218;28;20235;-50
2021/05/13 03:12:22;;;;;;;22.53;18.30;;;;;;;13.55;66.91;100843.25;6140244;29;20263;-49
2021/05/13 03:15:43;;;;;;;23.53;18.77;;;;;;;13.66;66.42;100836.91;6142508;28;20243;-54
2021/05/13 03:19:10;;;;;;;22.80;19.10;;;;;;;13.47;66.66;100828.59;6140604;28;20254;-52
2021/05/13 03:22:31;;;;;;;21.63;19.30;;;;;;;13.37;67.81;100835.75;6137504;28;20231;-47
2021/05/13 03:25:58;;;;;;;21.87;19.03;;;;;;;13.11;68.43;100826.66;6145727;29;20231;-49
2021/05/13 03:29:18;;;;;;;21.43;18.43;;;;;;;13.21;67.44;100837.81;6143889;28;20640;-52
2021/05/13 03:32:39;;;;;;;25.43;22.67;;;;;;;13.05;68.33;100837.25;6145578;28;20549;-52
2021/05/13 03:36:00;;;;;;;23.60;20.23;;;;;;;12.83;68.95;100834.13;6146799;29;20258;-50
2021/05/13 03:39:21;;;;;;;26.47;20.40;;;;;;;12.98;68.92;100828.63;6143799;28;20598;-46
2021/05/13 03:42:41;;;;;;;26.73;21.17;;;;;;;12.98;68.48;100830.41;6142807;29;20235;-55
2021/05/13 03:46:02;;;;;;;23.97;19.83;;;;;;;13.34;67.67;100834.09;6133478;29;20239;-49
2021/05/13 03:49:22;;;;;;;21.37;17.90;;;;;;;13.42;67.22;100827.84;6144589;28;20232;-51
2021/05/13 03:52:44;;;;;;;25.07;20.37;;;;;;;13.29;67.50;100825.44;6146827;29;20235;-49
2021/05/13 03:56:05;;;;;;;21.27;18.90;;;;;;;13.35;67.33;100824.47;6143714;29;20240;-50
2021/05/13 03:59:25;;;;;;;19.93;17.63;;;;;;;13.32;67.37;100824.56;6143016;28;20223;-51
2021/05/13 04:02:46;;;;;;;19.03;17.13;;;;;;;13.24;67.55;100813.34;6139949;28;20231;-47
2021/05/13 04:06:06;;;;;;;21.20;19.00;;;;;;;13.23;67.22;100824.69;6140482;28;21944;-52
2021/05/13 04:09:28;;;;;;;21.03;18.77;;;;;;;13.12;67.95;100822.28;6154659;28;20226;-49
2021/05/13 04:12:51;;;;;;;19.27;16.87;;;;;;;12.96;68.56;100813.88;6136173;29;20235;-48
2021/05/13 04:16:12;;;;;;;20.43;18.33;;;;;;;13.11;67.91;100807.50;6144569;29;20238;-50
2021/05/13 04:19:33;;;;;;;21.23;18.90;;;;;;;13.00;68.40;100807.69;6144251;29;20772;-48
2021/05/13 04:22:53;;;;;;;22.77;20.23;;;;;;;13.31;67.56;100789.66;6141323;29;20223;-47
2021/05/13 04:26:15;;;;;;;22.70;19.20;;;;;;;13.25;67.42;100784.53;6139819;28;20617;-52
2021/05/13 04:29:35;;;;;;;19.83;17.13;;;;;;;13.19;67.89;100790.75;6146677;28;20235;-49
2021/05/13 04:32:55;;;;;;;21.53;19.23;;;;;;;13.37;67.11;100791.31;6141089;28;20383;-48
2021/05/13 04:36:17;;;;;;;21.47;18.07;;;;;;;12.72;69.51;100787.31;6144037;28;20522;-46
2021/05/13 04:39:37;;;;;;;22.53;18.20;;;;;;;12.96;69.08;100785.13;6144264;28;20323;-47
2021/05/13 04:42:58;;;;;;;20.03;17.90;;;;;;;13.29;67.75;100782.72;6131230;29;20608;-47
2021/05/13 04:46:22;;;;;;;19.27;17.30;;;;;;;13.09;68.32;100785.75;6139171;28;20305;-50
2021/05/13 04:49:42;;;;;;;21.23;18.03;;;;;;;13.13;68.14;100783.03;6142563;28;20235;-50
2021/05/13 04:53:08;;;;;;;21.17;18.30;;;;;;;13.31;67.72;100771.38;6143552;28;20235;-52
2021/05/13 04:56:29;;;;;;;18.97;16.97;;;;;;;13.39;67.35;100779.06;6110312;29;20354;-45
2021/05/13 04:59:51;;;;;;;19.37;17.30;;;;;;;13.06;68.61;100776.19;6142761;28;20259;-47
2021/05/13 05:03:11;;;;;;;19.40;17.40;;;;;;;12.91;68.67;100771.28;6138755;28;20251;-49
2021/05/13 05:06:33;;;;;;;20.97;17.90;;;;;;;13.12;67.87;100770.00;6140567;28;20227;-46
2021/05/13 05:09:53;;;;;;;20.73;18.60;;;;;;;13.17;67.94;100768.16;6136917;28;20231;-48
2021/05/13 05:13:14;;;;;;;21.13;18.07;;;;;;;13.07;68.19;100761.41;6139163;28;20239;-47
2021/05/13 05:16:35;;;;;;;18.97;16.97;;;;;;;13.20;68.25;100766.34;6142901;29;20261;-46
2021/05/13 05:19:56;;;;;;;19.33;17.33;;;;;;;13.06;68.20;100762.28;6140485;28;20223;-47
2021/05/13 05:23:17;;;;;;;18.90;16.30;;;;;;;13.01;68.32;100751.94;6124765;28;20243;-47
2021/05/13 05:26:38;;;;;;;18.40;16.47;;;;;;;13.04;68.77;100751.84;6134108;28;20295;-49
2021/05/13 05:29:58;;;;;;;18.93;16.80;;;;;;;13.12;68.06;100747.31;6141267;28;20243;-50
2021/05/13 05:33:20;;;;;;;17.87;14.80;;;;;;;13.31;67.10;100749.59;6139798;28;20354;-49
2021/05/13 05:36:40;;;;;;;24.97;16.60;;;;;;;13.31;67.40;100749.59;6144961;28;20570;-50
2021/05/13 05:40:03;;;;;;;17.27;15.47;;;;;;;13.41;66.90;100745.03;6141715;28;20250;-48
2021/05/13 05:43:24;;;;;;;16.37;14.77;;;;;;;13.35;67.00;100746.88;6141382;29;20621;-49
2021/05/13 05:46:44;;;;;;;17.93;16.23;;;;;;;13.40;66.88;100741.56;6143482;28;20330;-48
2021/05/13 05:50:07;;;;;;;19.10;16.87;;;;;;;13.30;67.19;100746.13;6142374;28;20524;-50
2021/05/13 05:53:28;;;;;;;17.13;15.20;;;;;;;13.23;67.36;100743.63;6128266;28;20687;-48
2021/05/13 05:56:48;;;;;;;17.83;16.03;;;;;;;13.07;67.96;100737.88;6128860;28;20342;-47
2021/05/13 06:00:09;;;;;;;18.20;16.27;;;;;;;13.13;67.50;100741.22;6127827;28;20243;-50
2021/05/13 06:03:30;;;;;;;17.07;15.33;;;;;;;13.24;67.59;100735.75;6136196;28;20239;-51
2021/05/13 06:06:51;;;;;;;18.23;15.63;;;;;;;12.99;68.26;100738.03;6140217;28;20242;-51
2021/05/13 06:10:13;;;;;;;15.07;13.50;;;;;;;13.23;67.51;100730.56;6139052;28;20235;-48
2021/05/13 06:13:34;;;;;;;17.93;15.27;;;;;;;13.20;67.49;100731.47;6141522;28;20236;-49
2021/05/13 06:16:54;;;;;;;17.93;15.37;;;;;;;12.92;67.85;100731.19;6136843;28;20230;-51
2021/05/13 06:20:19;;;;;;;20.40;15.97;;;;;;;13.10;67.74;100728.19;6113629;29;20227;-50
2021/05/13 06:23:40;;;;;;;15.70;13.93;;;;;;;13.24;67.21;100734.88;6140758;29;20314;-49
2021/05/13 06:27:03;;;;;;;15.80;13.90;;;;;;;13.32;67.03;100726.03;6138280;28;20748;-50
2021/05/13 06:30:24;;;;;;;18.10;15.23;;;;;;;13.32;67.12;100733.03;6135985;29;20850;-47
2021/05/13 06:33:44;;;;;;;18.83;15.97;;;;;;;13.28;67.10;100729.56;6139368;28;20227;-50
2021/05/13 06:37:05;;;;;;;18.37;16.13;;;;;;;13.38;66.61;100725.03;6140360;28;20832;-47
2021/05/13 06:40:26;;;;;;;20.03;15.40;;;;;;;13.41;66.70;100724.94;6140564;29;20222;-50
2021/05/13 06:43:47;;;;;;;17.07;15.27;;;;;;;13.34;66.69;100729.47;6139566;28;20517;-50
2021/05/13 06:47:07;;;;;;;21.87;15.77;;;;;;;13.68;66.21;100725.22;6139134;28;20235;-50
2021/05/13 06:50:28;;;;;;;18.90;16.10;;;;;;;13.58;65.94;100717.56;6139267;28;20340;-49
2021/05/13 06:53:49;;;;;;;19.77;15.67;;;;;;;13.12;67.18;100721.16;6117890;28;20626;-46
2021/05/13 06:57:10;;;;;;;23.67;17.47;;;;;;;13.47;66.44;100719.56;6138027;28;20234;-52
2021/05/13 07:00:31;;;;;;;22.73;18.77;;;;;;;13.58;66.31;100722.81;6135460;28;20219;-50
2021/05/13 07:03:51;;;;;;;21.57;16.80;;;;;;;13.55;65.98;100725.50;6137568;28;20306;-47
2021/05/13 07:07:12;;;;;;;26.70;19.13;;;;;;;13.39;66.44;100721.50;6140580;28;20505;-51
2021/05/13 07:10:34;;;;;;;21.43;16.83;;;;;;;13.51;66.15;100716.00;6138638;28;20515;-49
2021/05/13 07:13:55;;;;;;;21.30;15.87;;;;;;;13.84;64.96;100718.75;6136870;28;20231;-53
2021/05/13 07:17:16;;;;;;;15.47;13.83;;;;;;;13.64;65.39;100706.09;6141194;28;20227;-49
2021/05/13 07:20:36;;;;;;;15.83;12.97;;;;;;;13.57;65.31;100709.75;6137463;28;20640;-46
2021/05/13 07:23:57;;;;;;;14.30;11.37;;;;;;;13.74;65.31;100711.97;6141240;28;20227;-49
2021/05/13 07:27:19;;;;;;;14.07;12.57;;;;;;;13.53;65.37;100711.59;6144064;28;21968;-50
2021/05/13 07:30:42;;;;;;;13.83;12.37;;;;;;;13.58;65.50;100717.56;6138223;28;20982;-48
2021/05/13 07:34:02;;;;;;;17.83;13.43;;;;;;;13.75;65.36;100718.94;6137916;28;20603;-46
2021/05/13 07:37:25;;;;;;;15.20;12.83;;;;;;;13.64;65.33;100715.72;6142153;28;20859;-47
2021/05/13 07:40:45;;;;;;;16.10;12.30;;;;;;;13.75;65.42;100713.72;6121891;28;20314;-49
2021/05/13 07:44:06;;;;;;;19.17;15.10;;;;;;;13.81;64.74;100718.81;6136241;28;20658;-47
2021/05/13 07:47:28;;;;;;;13.97;12.33;;;;;;;13.50;65.96;100719.50;6137210;28;20246;-47
2021/05/13 07:50:48;;;;;;;17.67;13.87;;;;;;;13.73;65.57;100721.59;6135876;28;20239;-48
2021/05/13 07:54:09;;;;;;;15.77;13.40;;;;;;;13.69;65.70;100713.88;6141385;29;20303;-52
2021/05/13 07:57:29;;;;;;;15.77;14.07;;;;;;;13.84;65.35;100723.09;6140094;28;20231;-49
2021/05/13 08:00:50;;;;;;;14.60;13.10;;;;;;;14.17;63.98;100724.00;6135170;28;20499;-54
2021/05/13 08:04:11;;;;;;;15.33;12.30;;;;;;;14.04;64.45;100730.47;6139121;29;20306;-53
2021/05/13 08:07:32;;;;;;;13.63;12.23;;;;;;;14.27;63.88;100725.53;6141789;28;20333;-53
2021/05/13 08:10:52;;;;;;;12.93;10.97;;;;;;;14.06;64.77;100723.44;6141651;28;20224;-51
2021/05/13 08:14:12;;;;;;;13.73;11.60;;;;;;;14.04;64.53;100720.84;6140809;28;20231;-50
2021/05/13 08:17:33;;;;;;;8.97;8.07;;;;;;;14.37;66.35;100713.03;6129713;28;20275;-46
2021/05/13 08:20:55;;;;;;;13.80;11.23;;;;;;;14.95;63.78;100706.22;6130629;28;20251;-47
2021/05/13 08:24:15;;;;;;;13.07;11.73;;;;;;;15.26;63.37;100704.47;6138746;28;20235;-51
2021/05/13 08:27:36;;;;;;;136.27;49.80;;;;;;;15.69;60.86;100703.13;6143455;28;20629;-52
2021/05/13 08:30:56;;;;;;;12.13;10.85;;;;;;;14.91;61.64;100698.50;6138617;28;20794;-51
2021/05/13 08:34:17;;;;;;;15.15;13.63;;;;;;;15.77;61.45;100703.75;6135688;28;20760;-52
2021/05/13 08:37:39;;;;;;;11.97;10.87;;;;;;;16.11;59.66;100694.75;6141668;28;20400;-51
2021/05/13 08:41:00;;;;;;;12.30;9.50;;;;;;;15.66;59.44;100700.56;6140708;28;20234;-54
2021/05/13 08:44:21;;;;;;;9.10;8.23;;;;;;;15.69;60.13;100692.63;6137423;28;20240;-54
2021/05/13 08:47:45;;;;;;;10.73;8.73;;;;;;;14.77;62.65;100699.75;6143532;28;20242;-50
2021/05/13 08:51:06;;;;;;;9.50;8.07;;;;;;;14.84;61.83;100691.69;6124659;28;20323;-51
2021/05/13 08:54:29;;;;;;;9.30;8.07;;;;;;;14.80;62.27;100696.16;6138633;28;20227;-48
2021/05/13 08:57:50;;;;;;;8.27;7.47;;;;;;;14.92;61.98;100694.94;6139297;29;20235;-50
2021/05/13 09:01:15;;;;;;;7.97;7.20;;;;;;;14.65;63.06;100686.13;6139075;28;20629;-54
2021/05/13 09:04:38;;;;;;;7.83;7.13;;;;;;;14.73;62.38;100685.00;6135337;28;20259;-48
2021/05/13 09:08:04;;;;;;;9.67;7.47;;;;;;;14.92;61.67;100685.31;6139640;28;20235;-51
2021/05/13 09:11:25;;;;;;;8.60;7.33;;;;;;;15.11;61.54;100685.63;6141222;28;20239;-51
2021/05/13 09:14:56;;;;;;;8.97;7.33;;;;;;;14.91;61.75;100688.00;6134865;28;21483;-51
2021/05/13 09:18:30;;;;;;;9.70;8.70;;;;;;;14.95;61.73;100687.00;6126424;28;20234;-49
2021/05/13 09:21:56;;;;;;;9.23;7.30;;;;;;;14.68;63.26;100681.66;6139791;28;20235;-49
2021/05/13 09:25:17;;;;;;;8.27;7.13;;;;;;;14.84;63.24;100681.22;6133173;28;20219;-51
2021/05/13 09:28:40;;;;;;;10.47;8.40;;;;;;;15.22;61.95;100680.09;6131890;28;20239;-52
2021/05/13 09:32:00;;;;;;;7.87;7.13;;;;;;;15.47;61.42;100681.91;6139197;28;20242;-51
2021/05/13 09:35:22;;;;;;;10.10;9.03;;;;;;;15.26;62.47;100684.31;6130760;28;20231;-51
2021/05/13 09:38:43;;;;;;;7.17;6.57;;;;;;;15.24;62.32;100680.03;6129939;28;20262;-48
2021/05/13 09:42:06;;;;;;;8.07;7.30;;;;;;;15.33;61.55;100682.34;6133466;28;20239;-50
2021/05/13 09:45:41;;;;;;;9.07;6.37;;;;;;;15.04;62.16;100683.25;6133654;29;20239;-48
2021/05/13 09:49:02;;;;;;;8.40;7.50;;;;;;;15.13;62.50;100675.97;6133865;28;20228;-48
2021/05/13 09:52:46;;;;;;;6.17;5.60;;;;;;;15.22;62.43;100676.56;6137234;28;20266;-50
2021/05/13 09:56:22;;;;;;;7.03;5.07;;;;;;;15.21;62.53;100674.88;6136917;28;20322;-53
2021/05/13 09:59:49;;;;;;;6.47;5.83;;;;;;;15.47;62.26;100677.56;6139697;28;20246;-52
2021/05/13 10:03:13;;;;;;;6.97;5.93;;;;;;;14.83;63.03;100682.09;6135476;28;20234;-50
2021/05/13 10:06:34;;;;;;;6.30;5.70;;;;;;;14.98;62.57;100676.41;6135384;28;20953;-52
2021/05/13 10:09:55;;;;;;;6.33;5.60;;;;;;;15.00;61.92;100668.50;6136001;28;20238;-55
2021/05/13 10:13:18;;;;;;;7.87;5.77;;;;;;;15.11;62.29;100669.06;6133336;28;20243;-53
2021/05/13 10:16:40;;;;;;;5.83;5.10;;;;;;;15.15;61.27;100670.66;6139486;28;20231;-51
2021/05/13 10:20:02;;;;;;;7.87;6.60;;;;;;;15.29;60.68;100675.50;6136195;28;20649;-50
2021/05/13 10:23:22;;;;;;;6.10;5.07;;;;;;;15.59;60.92;100670.19;6126749;28;20235;-52
2021/05/13 10:26:45;;;;;;;6.77;5.30;;;;;;;15.44;61.37;100675.00;6138842;28;20231;-54
2021/05/13 10:30:06;;;;;;;5.53;5.03;;;;;;;15.53;61.60;100673.88;6134889;28;20239;-47
2021/05/13 10:33:44;;;;;;;5.50;4.97;;;;;;;15.52;61.99;100667.75;6123148;29;20918;-54
2021/05/13 10:37:10;;;;;;;6.03;5.53;;;;;;;15.39;61.97;100666.41;6134931;28;20310;-51
2021/05/13 10:40:46;;;;;;;7.70;6.93;;;;;;;15.47;61.86;100666.19;6134560;28;20506;-49
2021/05/13 10:44:38;;;;;;;7.23;6.63;;;;;;;15.28;61.75;100665.91;6107137;28;20318;-47
2021/05/13 10:48:25;;;;;;;8.93;6.17;;;;;;;15.48;61.29;100667.91;6134020;28;20534;-52
2021/05/13 10:51:47;;;;;;;6.47;5.90;;;;;;;15.43;61.60;100664.56;6121815;28;20235;-49
2021/05/13 10:55:10;;;;;;;7.43;6.03;;;;;;;15.25;62.70;100666.00;6131890;28;20247;-52
2021/05/13 10:58:58;;;;;;;9.17;6.40;;;;;;;15.45;62.29;100663.63;6134030;28;20238;-52
2021/05/13 11:02:38;;;;;;;6.93;6.30;;;;;;;15.43;61.72;100673.31;6119883;28;20227;-48
2021/05/13 11:06:00;;;;;;;8.03;7.23;;;;;;;15.24;62.69;100675.63;6133760;28;20562;-52
2021/05/13 11:09:55;;;;;;;6.97;6.37;;;;;;;15.41;62.34;100672.50;6130438;28;20226;-49
2021/05/13 11:13:17;;;;;;;6.33;5.43;;;;;;;15.70;62.10;100670.69;6137469;29;20235;-62
2021/05/13 11:16:47;;;;;;;7.07;5.47;;;;;;;16.22;60.50;100665.47;6133633;28;20322;-60
2021/05/13 11:20:20;;;;;;;7.70;5.17;;;;;;;16.50;59.93;100654.88;6134777;28;20238;-62
2021/05/13 11:23:48;;;;;;;11.07;6.87;;;;;;;16.01;62.11;100661.81;6134899;28;20600;-62
2021/05/13 11:27:11;;;;;;;6.10;5.40;;;;;;;16.43;60.62;100650.72;6134576;28;20237;-62
2021/05/13 11:30:32;;;;;;;5.63;4.63;;;;;;;16.38;59.88;100644.78;6137277;28;20223;-61
2021/05/13 11:33:56;;;;;;;8.63;5.93;;;;;;;16.63;59.47;100645.59;6137571;28;20596;-59
2021/05/13 11:37:44;;;;;;;5.00;4.57;;;;;;;16.62;58.80;100661.44;6137606;28;20231;-61
2021/05/13 11:41:05;;;;;;;4.27;3.83;;;;;;;16.79;59.16;100655.53;6133452;28;20286;-59
2021/05/13 11:44:25;;;;;;;7.17;4.83;;;;;;;16.51;59.17;100648.69;6140894;28;20235;-60
2021/05/13 11:47:47;;;;;;;7.00;5.73;;;;;;;16.85;57.72;100650.97;6121089;29;20243;-61
2021/05/13 11:51:09;;;;;;;5.17;4.60;;;;;;;16.40;59.18;100648.19;6144189;28;20231;-60
2021/05/13 11:54:34;;;;;;;4.67;4.07;;;;;;;16.57;59.25;100650.22;6142406;28;20235;-61
2021/05/13 11:57:54;;;;;;;5.50;4.27;;;;;;;16.59;59.52;100648.41;6141875;29;20243;-61
2021/05/13 12:01:26;;;;;;;5.93;5.23;;;;;;;16.05;60.62;100653.81;6138539;28;20546;-51
2021/05/13 12:04:47;;;;;;;5.77;5.20;;;;;;;15.81;62.09;100650.22;6143488;29;20322;-51
2021/05/13 12:08:08;;;;;;;5.77;4.80;;;;;;;15.59;63.59;100652.69;6134510;28;20231;-52
2021/05/13 12:11:29;;;;;;;6.73;5.10;;;;;;;16.26;62.59;100652.19;6145920;28;20262;-50
2021/05/13 12:14:49;;;;;;;4.70;4.13;;;;;;;16.25;60.59;100644.38;6142143;28;20254;-49
2021/05/13 12:18:10;;;;;;;4.17;3.60;;;;;;;15.75;61.74;100646.03;6142339;28;20405;-48
2021/05/13 12:21:34;;;;;;;5.37;4.03;;;;;;;16.36;60.65;100647.44;6143916;28;20247;-52
2021/05/13 12:24:55;;;;;;;3.80;3.40;;;;;;;16.77;60.19;100642.47;6127160;29;20271;-48
2021/05/13 12:28:16;;;;;;;5.30;4.80;;;;;;;16.70;59.65;100646.25;6125074;29;20235;-54
2021/05/13 12:31:39;;;;;;;5.30;4.80;;;;;;;16.54;59.70;100653.84;6143834;28;20239;-46
2021/05/13 12:34:59;;;;;;;4.40;4.00;;;;;;;16.66;59.27;100650.75;6142319;28;20231;-50
2021/05/13 12:38:22;;;;;;;5.97;5.47;;;;;;;16.41;59.81;100644.69;6142908;29;20227;-52
2021/05/13 12:41:42;;;;;;;5.63;5.03;;;;;;;16.00;61.80;100645.22;6149987;28;20220;-49
2021/05/13 12:45:14;;;;;;;5.50;5.00;;;;;;;16.24;60.99;100643.50;6140922;28;20231;-50
2021/05/13 12:48:34;;;;;;;6.40;4.77;;;;;;;16.49;60.04;100642.63;6134732;28;20231;-52
2021/05/13 12:51:59;;;;;;;5.73;5.23;;;;;;;16.14;61.15;100640.34;6139294;28;20632;-54
2021/05/13 12:55:21;;;;;;;7.67;4.97;;;;;;;16.36;60.82;100643.97;6140361;28;20566;-51
2021/05/13 12:58:42;;;;;;;7.30;6.60;;;;;;;16.25;61.59;100639.13;6140133;29;20372;-53
2021/05/13 13:02:03;;;;;;;7.13;6.43;;;;;;;16.38;59.92;100640.41;6123962;29;20238;-50
2021/05/13 13:05:24;;;;;;;6.70;5.57;;;;;;;16.70;60.05;100647.09;6123683;28;20255;-51
2021/05/13 13:08:46;;;;;;;4.90;4.50;;;;;;;16.49;nan;100646.09;6140214;29;20239;-54
2021/05/13 13:12:10;;;;;;;6.00;5.40;;;;;;;16.33;60.57;100643.16;6135059;28;20561;-51
2021/05/13 13:15:34;;;;;;;6.00;5.40;;;;;;;16.37;59.68;100637.81;6138068;29;20243;-49
2021/05/13 13:19:02;;;;;;;6.30;5.03;;;;;;;16.43;60.29;100637.59;6140770;28;20234;-46
2021/05/13 13:22:22;;;;;;;5.97;4.70;;;;;;;16.57;61.30;100643.19;6141451;28;20243;-51
2021/05/13 13:25:43;;;;;;;5.37;4.87;;;;;;;16.46;61.15;100630.47;6139554;28;20231;-50
2021/05/13 13:29:06;;;;;;;5.23;4.70;;;;;;;16.94;59.42;100633.94;6139983;28;20235;-52
2021/05/13 13:32:28;;;;;;;6.83;6.33;;;;;;;16.79;59.30;100626.63;6144913;29;20239;-50
2021/05/13 13:35:50;;;;;;;7.63;6.93;;;;;;;16.82;59.86;100634.44;6143474;28;20313;-52
2021/05/13 13:39:10;;;;;;;7.77;7.17;;;;;;;16.52;60.75;100626.75;6142118;28;20231;-53
2021/05/13 13:42:31;;;;;;;7.37;6.77;;;;;;;16.35;61.00;100624.72;6145596;28;20514;-50
2021/05/13 13:45:53;;;;;;;8.63;7.63;;;;;;;16.61;60.34;100626.38;6134765;28;20493;-50
2021/05/13 13:49:13;;;;;;;8.53;7.77;;;;;;;16.25;61.48;100618.94;6135163;28;20231;-50
2021/05/13 13:52:34;;;;;;;8.83;8.03;;;;;;;15.83;62.80;100622.16;6129787;28;20242;-52
2021/05/13 13:55:55;;;;;;;11.87;10.77;;;;;;;16.03;62.43;100613.59;6140662;29;20243;-49
2021/05/13 13:59:16;;;;;;;8.87;8.03;;;;;;;15.71;63.52;100612.88;6142471;28;21799;-51
2021/05/13 14:02:40;;;;;;;8.07;7.47;;;;;;;16.10;62.57;100611.59;6140856;28;20250;-50
2021/05/13 14:06:00;;;;;;;10.87;9.97;;;;;;;16.06;62.44;100604.75;6135401;28;20262;-48
2021/05/13 14:09:21;;;;;;;8.20;7.50;;;;;;;15.79;62.72;100603.94;6139358;28;20401;-52
2021/05/13 14:12:42;;;;;;;7.10;6.50;;;;;;;15.56;63.17;100598.50;6138825;28;20235;-48
2021/05/13 14:16:03;;;;;;;7.73;7.03;;;;;;;15.52;64.15;100601.28;6132592;29;20319;-50
2021/05/13 14:19:25;;;;;;;7.93;7.23;;;;;;;15.38;64.22;100593.03;6135596;29;20242;-48
2021/05/13 14:22:46;;;;;;;7.37;6.73;;;;;;;15.53;63.55;100593.38;6138649;28;20613;-54
2021/05/13 14:26:07;;;;;;;8.63;7.83;;;;;;;15.62;63.43;100591.34;6141149;29;20235;-49
2021/05/13 14:29:27;;;;;;;7.93;7.23;;;;;;;15.72;62.85;100590.13;6140553;29;20313;-47
2021/05/13 14:32:48;;;;;;;7.43;6.83;;;;;;;15.50;63.34;100588.22;6129750;29;20583;-50
2021/05/13 14:36:09;;;;;;;8.20;7.53;;;;;;;15.39;64.00;100584.22;6129153;28;20285;-50
2021/05/13 14:39:30;;;;;;;7.47;6.87;;;;;;;15.41;63.67;100582.41;6133335;28;20250;-53
2021/05/13 14:42:50;;;;;;;10.50;8.33;;;;;;;15.38;63.67;100582.53;6137928;28;20626;-49
2021/05/13 14:46:11;;;;;;;8.37;7.67;;;;;;;15.59;63.39;100584.44;6136278;28;20239;-46
2021/05/13 14:49:36;;;;;;;8.53;7.77;;;;;;;15.19;63.93;100579.63;6132944;28;20234;-46
2021/05/13 14:52:57;;;;;;;8.70;8.00;;;;;;;15.45;63.92;100576.16;6139554;28;20235;-51
2021/05/13 14:56:18;;;;;;;9.77;8.73;;;;;;;15.03;64.10;100568.78;6133165;28;20231;-50
2021/05/13 14:59:39;;;;;;;8.40;7.70;;;;;;;15.37;63.88;100565.91;6144517;28;20226;-52
2021/05/13 15:03:00;;;;;;;9.87;8.90;;;;;;;15.34;63.48;100566.03;6139170;28;20231;-49
2021/05/13 15:06:20;;;;;;;11.57;8.23;;;;;;;15.51;63.00;100563.69;6135279;28;20313;-48
2021/05/13 15:09:42;;;;;;;9.27;8.57;;;;;;;15.68;62.80;100562.25;6138300;28;20235;-53
2021/05/13 15:13:02;;;;;;;8.37;7.60;;;;;;;15.80;62.30;100556.63;6146139;28;20242;-50
2021/05/13 15:16:23;;;;;;;9.53;8.60;;;;;;;15.14;64.30;100559.66;6133236;28;20223;-48
2021/05/13 15:19:43;;;;;;;9.37;8.37;;;;;;;15.30;63.69;100561.78;6146287;28;20235;-50
2021/05/13 15:23:03;;;;;;;9.23;8.53;;;;;;;15.06;64.57;100566.91;6140849;28;20235;-49
2021/05/13 15:26:25;;;;;;;37.50;8.87;;;;;;;15.39;66.80;100564.09;6141793;28;20325;-52
2021/05/13 15:29:46;;;;;;;8.50;6.60;;;;;;;15.56;64.96;100556.50;6143359;29;20318;-49